createdAt,value
2018-08-17T03:05:16.200Z,20.40
2018-08-17T03:38:58.081Z,20.83
2018-08-17T05:53:58.929Z,21.34
2018-08-17T06:02:24.008Z,20.99
2018-08-17T06:27:42.444Z,20.68
2018-08-17T06:36:03.549Z,20.76
2018-08-17T06:44:24.553Z,20.70
2018-08-17T06:52:45.666Z,20.65
2018-08-17T07:01:12.625Z,20.35
2018-08-17T07:09:33.809Z,20.37
2018-08-17T07:17:54.886Z,20.27
2018-08-17T07:26:15.918Z,20.31
2018-08-17T07:34:37.037Z,20.24
2018-08-17T07:42:58.076Z,20.24
2018-08-17T07:51:19.230Z,20.30
2018-08-17T07:59:40.363Z,20.42
2018-08-17T08:08:01.388Z,20.88
2018-08-17T08:16:22.411Z,21.42
2018-08-17T08:24:43.453Z,22.01
2018-08-17T08:33:04.479Z,22.89
2018-08-17T08:41:25.587Z,23.16
2018-08-17T08:49:46.631Z,23.72
2018-08-17T08:58:07.641Z,24.09
2018-08-17T09:06:28.677Z,24.57
2018-08-17T09:27:39.463Z,24.94
2018-08-17T09:36:00.726Z,25.11
2018-08-17T09:44:21.772Z,25.12
2018-08-17T09:52:42.852Z,25.29
2018-08-17T10:01:04.918Z,25.73
2018-08-17T10:09:25.939Z,25.58
2018-08-17T10:17:47.007Z,25.45
2018-08-17T10:26:08.048Z,25.29
2018-08-17T10:40:32.928Z,25.10
2018-08-17T10:48:55.123Z,25.97
2018-08-17T10:57:16.102Z,26.86
2018-08-17T11:05:48.835Z,27.40
2018-08-17T11:14:09.860Z,27.47
2018-08-17T11:27:36.074Z,26.99
2018-08-17T11:35:59.194Z,26.88
2018-08-17T11:44:20.491Z,26.82
2018-08-17T12:01:07.674Z,26.79
2018-08-17T12:18:28.389Z,26.65
2018-08-17T12:35:15.683Z,24.24
2018-08-17T12:43:41.301Z,24.06
2018-08-17T13:17:27.000Z,27.66
2018-08-17T13:25:48.059Z,29.33
2018-08-17T13:36:59.467Z,31.60
2018-08-17T13:45:20.491Z,32.05
2018-08-17T13:53:41.531Z,32.91
2018-08-17T14:02:05.046Z,31.30
2018-08-17T14:10:26.095Z,32.80
2018-08-17T15:22:03.772Z,40.90
2018-08-17T15:38:51.702Z,43.45
2018-08-17T15:55:39.544Z,44.32
2018-08-17T16:04:00.936Z,44.85
2018-08-17T16:12:22.188Z,43.88
2018-08-17T16:20:43.241Z,40.73
2018-08-17T16:29:04.335Z,38.07
2018-08-17T16:37:25.425Z,34.74
2018-08-17T16:45:46.397Z,32.49
2018-08-17T16:54:07.397Z,30.78
2018-08-17T17:44:42.830Z,27.59
2018-08-17T17:53:03.803Z,26.65
2018-08-17T18:01:24.825Z,25.84
2018-08-17T18:09:46.053Z,25.45
2018-08-17T18:18:07.081Z,25.02
2018-08-17T18:26:32.288Z,24.37
2018-08-17T18:37:00.176Z,23.46
2018-08-17T18:45:21.208Z,22.87
2018-08-17T18:55:07.156Z,22.32
2018-08-17T19:03:28.198Z,21.90
2018-08-17T19:20:16.297Z,20.93
2018-08-17T19:37:03.714Z,20.44
2018-08-17T19:45:24.766Z,20.20
2018-08-17T19:53:45.877Z,20.00
2018-08-17T20:10:33.500Z,19.64
2018-08-17T20:18:54.520Z,19.45
2018-08-17T20:27:15.805Z,19.33
2018-08-17T20:35:37.092Z,19.20
2018-08-17T20:52:24.930Z,18.80
2018-08-17T21:00:45.968Z,18.61
2018-08-17T21:09:10.797Z,18.39
2018-08-17T21:17:32.188Z,18.42
2018-08-17T21:25:55.477Z,18.52
2018-08-17T21:34:16.512Z,18.50
2018-08-17T21:51:04.473Z,18.58
2018-08-17T22:07:51.782Z,18.15
2018-08-17T22:19:53.464Z,18.04
2018-08-17T22:53:35.008Z,17.62
2018-08-17T23:01:56.054Z,17.50
2018-08-17T23:10:17.102Z,17.42
2018-08-17T23:35:31.715Z,17.17
2018-08-17T23:43:52.769Z,17.11
2018-08-17T23:52:19.567Z,17.08
